Time;durP1;ratioP1;P1;durP2;ratioP2;P2;SDS_P1;SDS_P2;PMS_P1;PMS_P2;Temp;Humidity;BMP_temperature;BMP_pressure;BME280_temperature;BME280_humidity;BME280_pressure;Samples;Min_cycle;Max_cycle;Signal;HPM_P1;HPM_P2
2023/03/28 00:00:20;;;;;;;2.38;0.40;;;4.30;99.90;;;;;;5114840;28;20546;-58
2023/03/28 00:02:47;;;;;;;0.80;0.40;;;4.60;1.00;;;;;;5114758;28;20511;-56
2023/03/28 00:05:16;;;;;;;1.70;0.40;;;4.60;99.90;;;;;;5114857;28;20455;-55
2023/03/28 00:07:43;;;;;;;0.73;0.40;;;4.60;99.90;;;;;;5114291;28;20416;-57
2023/03/28 00:10:10;;;;;;;0.60;0.30;;;4.50;99.90;;;;;;5113832;28;20408;-57
2023/03/28 00:12:37;;;;;;;0.70;0.40;;;4.60;99.90;;;;;;5112119;28;20455;-56
2023/03/28 00:15:05;;;;;;;0.75;0.40;;;4.60;99.90;;;;;;5102661;28;20523;-57
2023/03/28 00:17:32;;;;;;;1.95;0.30;;;4.60;99.90;;;;;;5114335;28;20498;-55
2023/03/28 00:20:03;;;;;;;0.70;0.40;;;4.90;99.90;;;;;;5113775;28;20426;-56
2023/03/28 00:22:32;;;;;;;1.40;0.30;;;4.80;99.90;;;;;;5113850;28;20711;-57
2023/03/28 00:24:59;;;;;;;2.00;0.40;;;4.70;99.90;;;;;;5113867;28;20409;-57
2023/03/28 00:27:26;;;;;;;0.50;0.30;;;4.80;99.90;;;;;;5114380;28;20506;-56
2023/03/28 00:29:53;;;;;;;1.60;0.40;;;4.70;99.90;;;;;;5106666;28;20818;-57
2023/03/28 00:32:20;;;;;;;0.70;0.30;;;4.50;99.90;;;;;;5096200;28;20492;-56
2023/03/28 00:34:46;;;;;;;1.40;0.30;;;4.60;99.90;;;;;;5095758;28;20778;-57
2023/03/28 00:37:16;;;;;;;1.63;0.40;;;4.50;99.90;;;;;;5096313;28;20791;-57
2023/03/28 00:39:48;;;;;;;2.60;0.40;;;4.30;99.90;;;;;;5096907;28;20505;-57
2023/03/28 00:42:15;;;;;;;0.57;0.30;;;4.40;99.90;;;;;;5095473;28;20500;-55
2023/03/28 00:44:48;;;;;;;1.10;0.30;;;4.50;99.90;;;;;;5097401;28;20412;-56
2023/03/28 00:47:36;;;;;;;0.70;0.30;;;4.60;99.90;;;;;;5096908;28;20486;-57
2023/03/28 00:50:09;;;;;;;1.40;0.60;;;4.60;99.90;;;;;;5095050;28;20414;-58
2023/03/28 00:52:41;;;;;;;0.80;0.37;;;4.60;99.90;;;;;;5097229;28;20426;-58
2023/03/28 00:55:14;;;;;;;2.50;0.40;;;4.70;99.90;;;;;;5114832;28;20519;-56
2023/03/28 00:57:41;;;;;;;0.60;0.30;;;4.90;99.90;;;;;;5116103;28;20503;-61
2023/03/28 01:00:11;;;;;;;0.77;0.30;;;5.10;99.90;;;;;;5109188;28;20514;-56
2023/03/28 01:02:40;;;;;;;1.67;0.40;;;5.00;99.90;;;;;;5104351;28;20422;-59
2023/03/28 01:05:09;;;;;;;1.08;0.30;;;5.10;99.90;;;;;;5095417;28;20937;-56
2023/03/28 01:07:44;;;;;;;0.85;0.38;;;4.90;99.90;;;;;;5095438;28;20835;-56
2023/03/28 01:10:13;;;;;;;0.80;0.30;;;4.60;99.90;;;;;;5095442;28;20429;-55
2023/03/28 01:12:42;;;;;;;0.68;0.40;;;4.50;99.90;;;;;;5095358;28;20432;-56
2023/03/28 01:15:10;;;;;;;0.85;0.30;;;4.40;99.90;;;;;;5095028;28;20476;-56
2023/03/28 01:17:37;;;;;;;0.80;0.30;;;4.20;99.90;;;;;;5096306;28;20433;-58
2023/03/28 01:20:25;;;;;;;0.50;0.30;;;4.30;82.90;;;;;;5096257;28;20418;-58
2023/03/28 01:23:43;;;;;;;0.60;0.30;;;4.20;1.00;;;;;;5095831;28;20484;-54
2023/03/28 01:26:38;;;;;;;2.00;0.40;;;4.20;99.90;;;;;;4994314;28;20854;-56
2023/03/28 01:29:40;;;;;;;0.90;0.30;;;4.40;99.90;;;;;;5091767;28;20466;-56
2023/03/28 01:32:40;;;;;;;0.50;0.30;;;4.60;99.90;;;;;;5096535;28;20510;-56
2023/03/28 01:35:50;;;;;;;0.68;0.40;;;4.60;99.90;;;;;;5096579;28;20845;-57
2023/03/28 01:38:26;;;;;;;0.80;0.40;;;4.70;99.90;;;;;;5095257;28;20429;-57
2023/03/28 01:41:00;;;;;;;1.00;0.40;;;4.50;99.90;;;;;;5096495;28;20457;-57
2023/03/28 01:43:34;;;;;;;0.60;0.40;;;4.40;99.90;;;;;;5095790;28;20430;-55
2023/03/28 01:46:08;;;;;;;0.65;0.40;;;4.30;4.40;;;;;;5095585;28;20421;-56
2023/03/28 01:48:47;;;;;;;0.50;0.40;;;4.30;1.00;;;;;;5096231;28;20457;-57
2023/03/28 01:51:24;;;;;;;0.80;0.40;;;4.30;1.00;;;;;;5096573;28;20509;-56
2023/03/28 01:53:58;;;;;;;0.70;0.40;;;4.40;99.90;;;;;;5103132;28;20480;-55
2023/03/28 01:56:31;;;;;;;1.10;0.50;;;4.40;1.00;;;;;;5116480;28;20459;-59
2023/03/28 01:59:06;;;;;;;1.90;0.50;;;4.40;1.00;;;;;;5116007;28;20774;-56
2023/03/28 02:01:38;;;;;;;0.95;0.50;;;4.10;99.90;;;;;;5116655;28;20427;-56
2023/03/28 02:04:08;;;;;;;0.70;0.50;;;3.90;1.00;;;;;;5116183;28;20423;-56
2023/03/28 02:06:38;;;;;;;1.00;0.40;;;3.80;86.50;;;;;;5116740;28;20416;-55
2023/03/28 02:09:09;;;;;;;1.08;0.40;;;3.90;99.90;;;;;;5116335;28;20420;-56
2023/03/28 02:11:37;;;;;;;1.50;0.40;;;4.00;1.00;;;;;;5115532;28;20448;-56
2023/03/28 02:14:08;;;;;;;0.60;0.40;;;3.90;30.20;;;;;;5113990;28;20435;-57
2023/03/28 02:16:40;;;;;;;0.70;0.40;;;4.00;1.00;;;;;;5114629;28;20469;-55
2023/03/28 02:19:09;;;;;;;2.28;0.40;;;4.40;99.90;;;;;;5115658;28;20481;-57
2023/03/28 02:21:42;;;;;;;0.60;0.40;;;4.30;1.00;;;;;;5115112;28;20432;-58
2023/03/28 02:24:12;;;;;;;0.60;0.40;;;4.50;1.00;;;;;;5114707;28;20473;-56
2023/03/28 02:26:39;;;;;;;0.60;0.40;;;4.50;82.10;;;;;;5116156;28;20415;-57
2023/03/28 02:29:08;;;;;;;0.70;0.40;;;4.40;1.00;;;;;;5115989;28;20497;-56
2023/03/28 02:31:36;;;;;;;0.70;0.40;;;4.40;1.00;;;;;;5115517;28;20946;-56
2023/03/28 02:34:03;;;;;;;0.90;0.37;;;4.30;1.00;;;;;;5115875;28;20519;-54
2023/03/28 02:36:37;;;;;;;1.30;0.40;;;4.40;99.90;;;;;;5115447;28;20828;-56
2023/03/28 02:39:32;;;;;;;1.00;0.40;;;4.10;1.00;;;;;;5115483;28;20522;-55
2023/03/28 02:42:36;;;;;;;0.80;0.32;;;3.90;17.40;;;;;;5115583;28;20413;-56
2023/03/28 02:45:26;;;;;;;1.70;0.60;;;4.00;99.90;;;;;;5115150;28;20913;-60
2023/03/28 02:48:05;;;;;;;2.28;0.50;;;4.10;99.90;;;;;;5113790;28;20424;-56
2023/03/28 02:50:37;;;;;;;1.77;0.50;;;4.20;73.70;;;;;;5105565;28;20507;-57
2023/03/28 02:53:11;;;;;;;0.70;0.30;;;4.30;1.00;;;;;;5115390;28;20501;-57
2023/03/28 02:55:46;;;;;;;0.70;0.40;;;4.20;36.60;;;;;;5114276;28;20467;-57
2023/03/28 02:58:20;;;;;;;0.90;0.40;;;4.20;1.00;;;;;;5115464;28;20452;-57
2023/03/28 03:00:48;;;;;;;1.90;0.50;;;4.20;1.00;;;;;;5115341;28;20417;-57
2023/03/28 03:03:16;;;;;;;0.80;0.40;;;4.50;1.00;;;;;;5115288;28;20428;-58
2023/03/28 03:05:43;;;;;;;4.78;0.50;;;4.50;1.00;;;;;;5115206;28;20507;-61
2023/03/28 03:08:11;;;;;;;1.70;0.40;;;4.40;99.90;;;;;;5115272;28;20517;-61
2023/03/28 03:10:39;;;;;;;0.93;0.40;;;4.20;1.00;;;;;;5115218;28;20423;-57
2023/03/28 03:13:06;;;;;;;0.80;0.40;;;4.10;99.90;;;;;;5110902;28;20834;-57
2023/03/28 03:15:34;;;;;;;1.80;0.40;;;4.00;1.00;;;;;;5103752;28;20459;-56
2023/03/28 03:18:01;;;;;;;1.50;0.50;;;3.90;1.00;;;;;;5094827;28;20491;-57
2023/03/28 03:20:32;;;;;;;3.70;0.50;;;4.00;99.90;;;;;;5093387;28;20449;-58
2023/03/28 03:22:59;;;;;;;0.90;0.50;;;4.10;1.00;;;;;;5093511;28;20475;-57
2023/03/28 03:25:26;;;;;;;1.00;0.40;;;4.10;1.00;;;;;;5113343;28;20506;-58
2023/03/28 03:27:55;;;;;;;1.15;0.80;;;4.10;99.90;;;;;;5114002;28;20455;-56
2023/03/28 03:30:22;;;;;;;0.55;0.40;;;4.20;99.90;;;;;;5113633;28;20503;-58
2023/03/28 03:32:49;;;;;;;2.60;0.50;;;4.10;1.00;;;;;;5113714;28;20452;-58
2023/03/28 03:35:15;;;;;;;0.93;0.40;;;4.10;1.00;;;;;;5114069;28;20463;-57
2023/03/28 03:37:42;;;;;;;1.33;0.40;;;4.10;99.90;;;;;;5114967;28;20459;-57
2023/03/28 03:40:10;;;;;;;0.95;0.40;;;4.10;1.00;;;;;;5114413;28;20469;-56
2023/03/28 03:42:37;;;;;;;1.00;0.50;;;4.50;1.00;;;;;;5114933;28;20899;-55
2023/03/28 03:45:07;;;;;;;2.22;0.50;;;4.40;99.90;;;;;;5114892;28;20914;-56
2023/03/28 03:47:34;;;;;;;1.30;0.40;;;4.60;99.90;;;;;;5114651;28;20930;-57
2023/03/28 03:50:01;;;;;;;0.60;0.30;;;4.50;1.00;;;;;;5114792;28;20493;-57
2023/03/28 03:52:28;;;;;;;1.30;0.40;;;4.30;99.90;;;;;;5114457;28;20502;-57
2023/03/28 03:54:55;;;;;;;1.00;0.50;;;4.00;99.90;;;;;;5114423;28;20511;-54
2023/03/28 03:57:22;;;;;;;1.00;0.40;;;3.70;99.90;;;;;;5114226;28;20503;-57
2023/03/28 03:59:48;;;;;;;0.70;0.50;;;3.60;99.90;;;;;;5114150;28;20460;-57
2023/03/28 04:02:17;;;;;;;2.60;0.43;;;3.50;1.00;;;;;;5105006;28;20467;-56
2023/03/28 04:04:44;;;;;;;1.70;0.40;;;3.50;1.00;;;;;;5093813;28;20770;-53
2023/03/28 04:07:11;;;;;;;1.25;0.50;;;3.40;1.00;;;;;;5097452;28;20418;-55
2023/03/28 04:09:38;;;;;;;0.70;0.40;;;3.40;99.90;;;;;;5097453;28;20489;-55
2023/03/28 04:12:07;;;;;;;1.05;0.40;;;3.40;4.90;;;;;;5094228;28;20471;-55
2023/03/28 04:14:34;;;;;;;1.30;0.50;;;3.40;99.90;;;;;;5096856;28;20515;-51
2023/03/28 04:17:03;;;;;;;1.10;0.50;;;3.40;99.90;;;;;;5096352;28;20471;-54
2023/03/28 04:19:31;;;;;;;1.10;0.40;;;3.60;99.90;;;;;;5097227;28;20566;-51
2023/03/28 04:21:58;;;;;;;1.50;0.40;;;3.60;99.90;;;;;;5095956;28;20864;-55
2023/03/28 04:24:25;;;;;;;0.82;0.40;;;3.60;1.00;;;;;;5109280;28;20420;-56
2023/03/28 04:26:54;;;;;;;0.88;0.40;;;3.50;29.90;;;;;;5117846;28;20482;-57
2023/03/28 04:29:29;;;;;;;1.00;0.40;;;3.60;82.80;;;;;;5118801;28;20782;-56
2023/03/28 04:31:57;;;;;;;1.85;0.50;;;3.60;99.90;;;;;;5117979;28;20416;-55
2023/03/28 04:34:28;;;;;;;2.40;0.40;;;3.60;22.50;;;;;;5118343;28;20431;-56
2023/03/28 04:37:00;;;;;;;3.80;0.50;;;3.70;1.00;;;;;;5110819;28;20414;-58
2023/03/28 04:39:28;;;;;;;1.20;0.40;;;3.50;99.90;;;;;;5105085;28;20514;-54
2023/03/28 04:41:56;;;;;;;1.88;0.50;;;3.50;1.00;;;;;;5097301;28;20497;-56
2023/03/28 04:44:23;;;;;;;0.95;0.50;;;3.40;1.00;;;;;;5097763;28;20449;-56
2023/03/28 04:46:50;;;;;;;1.10;0.50;;;3.40;99.90;;;;;;5096157;28;20766;-55
2023/03/28 04:49:17;;;;;;;1.52;0.50;;;3.30;99.90;;;;;;5096376;28;20421;-53
2023/03/28 04:51:44;;;;;;;1.20;0.50;;;3.30;1.60;;;;;;5095935;28;20461;-53
2023/03/28 04:54:12;;;;;;;1.73;0.50;;;3.20;46.20;;;;;;5103909;28;20451;-54
2023/03/28 04:56:39;;;;;;;1.40;0.50;;;3.10;99.90;;;;;;5114525;28;20511;-52
2023/03/28 04:59:07;;;;;;;1.10;0.50;;;3.40;1.00;;;;;;5114326;28;20851;-55
2023/03/28 05:01:33;;;;;;;1.38;0.60;;;3.40;99.90;;;;;;5114538;28;20412;-49
2023/03/28 05:04:01;;;;;;;1.58;0.40;;;3.60;1.00;;;;;;5114926;28;20447;-53
2023/03/28 05:06:28;;;;;;;0.97;0.50;;;3.60;98.20;;;;;;5115006;28;20503;-56
2023/03/28 05:08:55;;;;;;;0.90;0.50;;;3.50;1.00;;;;;;5117332;28;20450;-52
2023/03/28 05:11:23;;;;;;;1.17;0.50;;;3.60;99.90;;;;;;5116698;28;20574;-55
2023/03/28 05:13:50;;;;;;;1.23;0.50;;;3.50;1.00;;;;;;5114837;28;20463;-51
2023/03/28 05:16:17;;;;;;;1.00;0.50;;;3.40;8.90;;;;;;5114598;28;20424;-54
2023/03/28 05:18:44;;;;;;;2.40;0.50;;;3.30;1.00;;;;;;5115357;28;20800;-49
2023/03/28 05:21:11;;;;;;;1.70;0.55;;;3.20;1.00;;;;;;5115536;28;20403;-56
2023/03/28 05:23:38;;;;;;;1.10;0.43;;;3.20;51.50;;;;;;5110606;28;20521;-53
2023/03/28 05:26:06;;;;;;;0.70;0.50;;;3.10;1.40;;;;;;5094169;28;20406;-53
2023/03/28 05:28:34;;;;;;;0.82;0.50;;;3.00;99.90;;;;;;5096485;28;20623;-50
2023/03/28 05:31:02;;;;;;;1.55;0.50;;;3.10;1.00;;;;;;5093896;28;20425;-53
2023/03/28 05:33:31;;;;;;;2.43;0.50;;;3.40;1.00;;;;;;5094000;28;20495;-50
2023/03/28 05:35:59;;;;;;;3.00;0.50;;;3.80;1.00;;;;;;5092991;28;20976;-53
2023/03/28 05:38:26;;;;;;;0.75;0.40;;;4.00;99.90;;;;;;5094873;28;20425;-55
2023/03/28 05:40:53;;;;;;;1.50;0.50;;;4.40;99.90;;;;;;5095370;28;20474;-55
2023/03/28 05:43:20;;;;;;;2.00;0.50;;;4.40;1.00;;;;;;5093049;28;20425;-54
2023/03/28 05:45:48;;;;;;;1.60;0.60;;;4.50;1.00;;;;;;5094796;28;20414;-52
2023/03/28 05:48:15;;;;;;;3.00;0.70;;;4.30;1.00;;;;;;5093953;28;20809;-51
2023/03/28 05:50:43;;;;;;;2.90;0.70;;;4.30;99.90;;;;;;5091802;28;20414;-53
2023/03/28 05:53:10;;;;;;;1.40;0.60;;;4.30;1.00;;;;;;5094244;28;20426;-52
2023/03/28 05:55:37;;;;;;;1.80;0.70;;;4.40;1.00;;;;;;5114056;28;20946;-54
2023/03/28 05:58:05;;;;;;;2.00;0.60;;;4.50;99.90;;;;;;5093419;28;20487;-54
2023/03/28 06:00:33;;;;;;;1.20;0.70;;;4.50;1.00;;;;;;5106082;28;20490;-54
2023/03/28 06:03:01;;;;;;;2.50;0.70;;;4.50;1.00;;;;;;5114455;28;21085;-54
2023/03/28 06:05:28;;;;;;;1.30;0.60;;;4.30;1.00;;;;;;5112536;28;20740;-53
2023/03/28 06:07:55;;;;;;;1.38;0.50;;;3.90;1.00;;;;;;5111149;28;20503;-55
2023/03/28 06:10:23;;;;;;;1.70;0.60;;;4.10;99.90;;;;;;5110456;28;20438;-53
2023/03/28 06:12:49;;;;;;;0.80;0.50;;;4.40;99.90;;;;;;5112989;28;20552;-55
2023/03/28 06:15:16;;;;;;;1.40;0.60;;;4.60;99.90;;;;;;5112410;28;20766;-50
2023/03/28 06:17:43;;;;;;;2.20;0.60;;;4.80;99.90;;;;;;5107423;28;20511;-52
2023/03/28 06:20:12;;;;;;;2.70;0.60;;;5.20;1.00;;;;;;5105828;28;20500;-53
2023/03/28 06:22:40;;;;;;;1.63;0.60;;;5.10;99.90;;;;;;5114559;28;20427;-51
2023/03/28 06:25:07;;;;;;;2.22;0.60;;;5.00;1.00;;;;;;5095759;28;20418;-52
2023/03/28 06:27:35;;;;;;;1.00;0.60;;;4.80;1.00;;;;;;5093639;28;20457;-53
2023/03/28 06:30:03;;;;;;;1.55;0.70;;;4.60;1.00;;;;;;5091394;28;20421;-50
2023/03/28 06:32:30;;;;;;;0.93;0.60;;;4.60;99.90;;;;;;5094049;28;20440;-56
2023/03/28 06:34:57;;;;;;;1.48;0.40;;;4.80;1.00;;;;;;5092882;28;20418;-54
2023/03/28 06:37:25;;;;;;;2.50;0.50;;;4.80;1.00;;;;;;5090613;28;20532;-54
2023/03/28 06:39:53;;;;;;;1.40;0.43;;;5.10;99.90;;;;;;5091551;28;20414;-53
2023/03/28 06:42:20;;;;;;;1.70;0.50;;;5.40;1.00;;;;;;5092710;28;20508;-54
2023/03/28 06:44:46;;;;;;;1.20;0.50;;;5.20;99.90;;;;;;5092448;28;20417;-50
2023/03/28 06:47:13;;;;;;;1.65;0.50;;;5.40;37.30;;;;;;5091561;28;20483;-50
2023/03/28 06:49:40;;;;;;;1.02;0.50;;;5.20;1.00;;;;;;5091022;28;20469;-54
2023/03/28 06:52:08;;;;;;;2.05;0.50;;;5.10;1.00;;;;;;5091059;28;20424;-55
2023/03/28 06:54:36;;;;;;;3.05;0.70;;;5.00;1.00;;;;;;5104811;28;20547;-53
2023/03/28 06:57:03;;;;;;;5.10;0.50;;;5.20;99.90;;;;;;5112336;28;20511;-55
2023/03/28 06:59:30;;;;;;;2.00;0.50;;;5.60;99.90;;;;;;5112440;28;20463;-56
2023/03/28 07:01:57;;;;;;;1.20;0.40;;;5.90;99.90;;;;;;5113024;28;20511;-55
2023/03/28 07:04:24;;;;;;;1.40;0.50;;;6.20;1.00;;;;;;5112838;28;20590;-56
2023/03/28 07:06:51;;;;;;;1.10;0.40;;;6.30;1.00;;;;;;5112984;28;20468;-56
2023/03/28 07:09:18;;;;;;;1.35;0.50;;;6.40;1.00;;;;;;5112277;28;20424;-54
2023/03/28 07:11:46;;;;;;;1.38;0.57;;;6.30;1.00;;;;;;5111219;28;20524;-55
2023/03/28 07:14:13;;;;;;;1.70;0.50;;;5.90;1.00;;;;;;5111108;28;20907;-53
2023/03/28 07:16:40;;;;;;;0.98;0.50;;;5.90;1.00;;;;;;5112439;28;20719;-55
2023/03/28 07:19:09;;;;;;;1.38;0.60;;;5.50;1.00;;;;;;5110498;28;20526;-54
2023/03/28 07:21:36;;;;;;;1.30;0.50;;;5.40;99.90;;;;;;5110740;28;20420;-54
2023/03/28 07:24:03;;;;;;;0.90;0.50;;;5.50;76.80;;;;;;5109655;28;20447;-52
2023/03/28 07:26:30;;;;;;;1.60;0.50;;;5.60;99.90;;;;;;5111007;28;20773;-54
2023/03/28 07:28:58;;;;;;;2.30;0.60;;;5.70;1.00;;;;;;5112072;28;20530;-51
2023/03/28 07:31:25;;;;;;;1.00;0.40;;;5.50;1.00;;;;;;5109160;28;20789;-53
2023/03/28 07:33:55;;;;;;;1.40;0.50;;;5.30;1.00;;;;;;5107933;28;21154;-54
2023/03/28 07:36:22;;;;;;;1.80;0.50;;;5.60;1.00;;;;;;5104255;28;20420;-56
2023/03/28 07:38:49;;;;;;;2.40;0.50;;;5.90;1.00;;;;;;5108815;28;20736;-54
2023/03/28 07:41:16;;;;;;;0.80;0.50;;;5.70;1.00;;;;;;5110353;28;20469;-54
2023/03/28 07:43:44;;;;;;;1.60;0.60;;;5.30;1.00;;;;;;5112702;28;20904;-54
2023/03/28 07:46:14;;;;;;;2.00;0.60;;;4.90;1.00;;;;;;5113814;28;20535;-53
2023/03/28 07:48:44;;;;;;;1.77;0.50;;;5.10;99.90;;;;;;5115606;28;20428;-53
2023/03/28 07:51:11;;;;;;;0.90;0.50;;;5.50;99.90;;;;;;5117087;28;20823;-53
2023/03/28 07:53:38;;;;;;;1.27;0.50;;;5.50;99.90;;;;;;5115725;28;20453;-50
2023/03/28 07:56:09;;;;;;;1.90;0.50;;;5.40;1.00;;;;;;5115375;28;20879;-55
2023/03/28 07:58:36;;;;;;;0.80;0.50;;;5.40;1.00;;;;;;5115291;28;20428;-51
2023/03/28 08:01:07;;;;;;;0.80;0.40;;;5.30;1.00;;;;;;5115068;28;20418;-54
2023/03/28 08:03:36;;;;;;;1.83;0.50;;;5.30;1.00;;;;;;5115570;28;20526;-54
2023/03/28 08:06:04;;;;;;;1.77;0.60;;;5.80;1.00;;;;;;5114280;28;20503;-53
2023/03/28 08:08:35;;;;;;;1.38;0.38;;;6.00;1.00;;;;;;5091092;28;20479;-53
2023/03/28 08:11:02;;;;;;;1.90;0.40;;;6.20;99.90;;;;;;5099723;28;20444;-53
2023/03/28 08:13:29;;;;;;;1.70;0.50;;;6.50;99.90;;;;;;5116708;28;20515;-54
2023/03/28 08:15:56;;;;;;;2.28;0.40;;;6.60;91.20;;;;;;5115492;28;20448;-59
2023/03/28 08:18:24;;;;;;;2.10;0.50;;;6.20;1.00;;;;;;5115096;28;20431;-55
2023/03/28 08:20:59;;;;;;;2.20;0.50;;;5.70;4.40;;;;;;5114643;28;20770;-52
2023/03/28 08:23:27;;;;;;;0.88;0.40;;;5.80;99.90;;;;;;5113812;28;20791;-53
2023/03/28 08:26:01;;;;;;;1.83;0.50;;;5.90;99.90;;;;;;5095274;28;20460;-54
2023/03/28 08:28:28;;;;;;;1.00;0.50;;;6.10;99.90;;;;;;5094974;28;20433;-53
2023/03/28 08:30:55;;;;;;;1.30;0.40;;;6.40;61.80;;;;;;5093275;28;20512;-54
2023/03/28 08:33:22;;;;;;;1.50;0.80;;;6.80;1.00;;;;;;5094308;28;20464;-60
2023/03/28 08:35:52;;;;;;;1.13;0.40;;;6.60;1.00;;;;;;5094575;28;20495;-59
2023/03/28 08:38:19;;;;;;;1.60;0.40;;;6.40;1.00;;;;;;5094445;28;20448;-60
2023/03/28 08:40:55;;;;;;;2.60;0.40;;;6.40;1.00;;;;;;5093803;28;20807;-60
2023/03/28 08:43:46;;;;;;;1.40;0.50;;;6.40;1.00;;;;;;5093201;28;20429;-60
2023/03/28 08:50:30;;;;;;;2.17;0.40;;;6.90;1.00;;;;;;5097696;28;20376;-60
2023/03/28 08:53:00;;;;;;;1.10;0.30;;;7.40;1.00;;;;;;5091723;28;20544;-61
2023/03/28 08:55:34;;;;;;;2.28;0.50;;;7.40;1.00;;;;;;5095255;28;20922;-61
2023/03/28 08:58:02;;;;;;;3.00;0.40;;;7.40;1.00;;;;;;5091691;28;20434;-61
2023/03/28 09:00:31;;;;;;;0.90;0.40;;;7.00;1.00;;;;;;5088353;28;20418;-61
2023/03/28 09:02:59;;;;;;;1.60;0.40;;;7.00;1.00;;;;;;5092992;28;20513;-61
2023/03/28 09:05:35;;;;;;;0.50;0.30;;;7.80;1.00;;;;;;5092128;28;20590;-60
2023/03/28 09:08:18;;;;;;;0.60;0.30;;;7.70;1.00;;;;;;5091281;28;20422;-60
2023/03/28 09:10:47;;;;;;;0.73;0.30;;;7.50;1.00;;;;;;5094186;28;20414;-61
2023/03/28 09:13:28;;;;;;;2.20;0.38;;;7.40;1.00;;;;;;5091458;28;20428;-61
2023/03/28 09:16:10;;;;;;;0.70;0.30;;;8.00;1.00;;;;;;5090107;28;20425;-61
2023/03/28 09:19:02;;;;;;;0.70;0.30;;;8.20;1.00;;;;;;5091406;28;20422;-59
2023/03/28 09:21:38;;;;;;;0.80;0.30;;;8.20;1.00;;;;;;5075459;28;20426;-59
2023/03/28 09:24:28;;;;;;;0.65;0.30;;;8.30;1.00;;;;;;5095771;28;20709;-59
2023/03/28 09:27:02;;;;;;;1.10;0.30;;;8.00;1.00;;;;;;5111951;28;20777;-60
2023/03/28 09:29:32;;;;;;;0.63;0.40;;;7.80;1.00;;;;;;5110187;28;20728;-60
2023/03/28 09:32:03;;;;;;;0.80;0.30;;;7.70;1.00;;;;;;5113879;28;20428;-60
2023/03/28 09:34:38;;;;;;;0.70;0.40;;;7.60;1.00;;;;;;5115149;28;20716;-59
2023/03/28 09:37:16;;;;;;;0.85;0.40;;;7.80;1.00;;;;;;5113133;28;20432;-59
2023/03/28 09:39:51;;;;;;;1.13;0.40;;;7.40;1.00;;;;;;5115702;28;20420;-59
2023/03/28 09:42:30;;;;;;;0.98;0.40;;;7.10;1.00;;;;;;5115121;28;20436;-59
2023/03/28 09:45:06;;;;;;;0.80;0.50;;;7.10;1.00;;;;;;5113635;28;20793;-60
2023/03/28 09:47:34;;;;;;;1.00;0.40;;;7.40;1.00;;;;;;5113697;28;20431;-59
2023/03/28 09:50:01;;;;;;;0.60;0.30;;;7.40;1.00;;;;;;5113480;28;20689;-60
2023/03/28 09:52:30;;;;;;;0.98;0.40;;;7.50;1.00;;;;;;5111105;28;20428;-59
2023/03/28 09:55:00;;;;;;;33.08;3.85;;;7.50;1.00;;;;;;5109899;28;20481;-60
2023/03/28 09:57:27;;;;;;;3.70;0.40;;;7.30;1.00;;;;;;5112089;28;20950;-60
2023/03/28 09:59:57;;;;;;;0.80;0.40;;;7.40;1.00;;;;;;5114151;28;20420;-60
2023/03/28 10:02:27;;;;;;;1.40;0.40;;;7.60;1.00;;;;;;5111697;28;20428;-60
2023/03/28 10:04:54;;;;;;;1.20;0.40;;;8.10;1.00;;;;;;5112792;28;20465;-61
2023/03/28 10:07:42;;;;;;;1.17;0.50;;;8.90;1.00;;;;;;5114173;28;20475;-60
2023/03/28 10:10:20;;;;;;;0.82;0.40;;;9.30;1.00;;;;;;5113037;28;20852;-61
2023/03/28 10:12:48;;;;;;;0.50;0.30;;;9.40;1.00;;;;;;5111437;28;20424;-60
2023/03/28 10:15:46;;;;;;;1.00;0.40;;;9.60;1.00;;;;;;5108935;28;20514;-60
2023/03/28 10:18:18;;;;;;;1.10;0.60;;;9.40;1.00;;;;;;5025698;28;20512;-60
2023/03/28 10:20:48;;;;;;;0.70;0.40;;;8.90;1.00;;;;;;5097108;28;20412;-60
2023/03/28 10:23:16;;;;;;;1.40;0.40;;;8.60;1.00;;;;;;5102468;28;20586;-64
2023/03/28 10:25:49;;;;;;;0.70;0.30;;;8.50;1.00;;;;;;5110331;28;20431;-60
2023/03/28 10:28:20;;;;;;;0.70;0.40;;;8.70;1.00;;;;;;5112520;28;20755;-60
2023/03/28 10:30:53;;;;;;;1.10;0.40;;;9.20;1.00;;;;;;5112800;28;20444;-60
2023/03/28 10:33:25;;;;;;;0.82;0.47;;;9.80;1.00;;;;;;5112833;28;20430;-60
2023/03/28 10:35:58;;;;;;;0.90;0.40;;;9.70;1.00;;;;;;5111922;28;20412;-61
2023/03/28 10:38:30;;;;;;;0.70;0.40;;;9.60;1.00;;;;;;5111053;28;20455;-62
2023/03/28 10:41:03;;;;;;;1.10;0.40;;;9.70;1.00;;;;;;5112008;28;20439;-62
2023/03/28 10:43:36;;;;;;;0.60;0.35;;;10.10;1.00;;;;;;5109492;28;20450;-61
2023/03/28 10:46:08;;;;;;;0.82;0.50;;;10.10;1.00;;;;;;5097807;28;20756;-62
2023/03/28 10:48:38;;;;;;;1.60;0.40;;;10.10;1.00;;;;;;5109130;28;20865;-61
2023/03/28 10:51:09;;;;;;;1.95;0.40;;;10.30;1.00;;;;;;5110820;28;20462;-60
2023/03/28 10:54:16;;;;;;;0.80;0.40;;;10.30;1.00;;;;;;5103426;28;20443;-61
2023/03/28 10:56:51;;;;;;;1.80;0.60;;;10.10;1.00;;;;;;5082330;28;20433;-61
2023/03/28 10:59:46;;;;;;;1.10;0.50;;;10.20;1.00;;;;;;5087455;28;20581;-61
2023/03/28 11:02:58;;;;;;;0.70;0.40;;;9.90;1.00;;;;;;5090548;28;20901;-61
2023/03/28 11:05:34;;;;;;;1.30;0.50;;;10.40;1.00;;;;;;5085779;28;20421;-64
2023/03/28 11:08:12;;;;;;;0.73;0.40;;;11.10;1.00;;;;;;5087195;28;20516;-63
2023/03/28 11:10:47;;;;;;;0.80;0.40;;;11.20;1.00;;;;;;5085602;28;20418;-59
2023/03/28 11:13:26;;;;;;;0.98;0.40;;;11.60;1.00;;;;;;5086637;28;20418;-59
2023/03/28 11:15:59;;;;;;;0.70;0.40;;;11.90;1.00;;;;;;5082929;28;20425;-58
2023/03/28 11:18:48;;;;;;;0.75;0.40;;;11.60;1.00;;;;;;5083689;28;20757;-61
2023/03/28 11:21:25;;;;;;;0.98;0.40;;;11.40;1.00;;;;;;5085265;28;20944;-60
2023/03/28 11:24:03;;;;;;;1.80;0.52;;;11.00;1.00;;;;;;5092344;28;20424;-61
2023/03/28 11:26:40;;;;;;;1.70;0.40;;;10.60;1.00;;;;;;5089618;28;21034;-60
2023/03/28 11:29:22;;;;;;;1.10;0.40;;;10.30;1.00;;;;;;5088670;28;20464;-61
2023/03/28 11:31:59;;;;;;;1.60;0.50;;;10.40;1.00;;;;;;5089198;28;20429;-61
2023/03/28 11:34:32;;;;;;;0.60;0.40;;;10.50;1.00;;;;;;5089653;28;20410;-61
2023/03/28 11:37:03;;;;;;;0.90;0.40;;;11.00;1.00;;;;;;5090115;28;20900;-62
2023/03/28 11:39:37;;;;;;;1.50;0.50;;;11.60;1.00;;;;;;5095125;28;20433;-61
2023/03/28 11:42:10;;;;;;;0.90;0.50;;;11.90;1.00;;;;;;5088073;28;20422;-61
2023/03/28 11:44:43;;;;;;;1.75;0.50;;;11.30;1.00;;;;;;5086882;28;20421;-61
2023/03/28 11:47:15;;;;;;;1.00;0.50;;;10.90;1.00;;;;;;5089818;28;20854;-61
2023/03/28 11:49:48;;;;;;;1.60;0.50;;;10.90;1.00;;;;;;5089951;28;20419;-62
2023/03/28 11:52:22;;;;;;;1.17;0.50;;;10.90;39.90;;;;;;5087848;28;20433;-61
2023/03/28 11:54:53;;;;;;;1.30;0.50;;;10.50;99.90;;;;;;5094735;28;20454;-61
2023/03/28 11:57:24;;;;;;;1.00;0.50;;;10.50;1.00;;;;;;5090803;28;20679;-60
2023/03/28 11:59:59;;;;;;;0.90;0.40;;;11.00;1.00;;;;;;5091367;28;20984;-61
2023/03/28 12:02:41;;;;;;;1.00;0.50;;;11.50;1.00;;;;;;5089119;28;20429;-61
2023/03/28 12:05:19;;;;;;;1.40;0.50;;;11.80;99.90;;;;;;5090160;28;20410;-62
2023/03/28 12:07:52;;;;;;;0.80;0.50;;;11.90;1.00;;;;;;5090419;28;20849;-62
2023/03/28 12:10:23;;;;;;;1.40;0.50;;;11.60;1.00;;;;;;5088138;28;20410;-61
2023/03/28 12:13:02;;;;;;;2.20;0.50;;;11.10;1.00;;;;;;5087657;28;20918;-62
2023/03/28 12:15:37;;;;;;;1.30;0.47;;;10.60;99.90;;;;;;5087882;28;20410;-63
2023/03/28 12:18:09;;;;;;;1.40;0.43;;;10.50;30.80;;;;;;5087670;28;20437;-62
2023/03/28 12:20:41;;;;;;;0.80;0.40;;;10.40;1.00;;;;;;5088709;28;20426;-61
2023/03/28 12:23:15;;;;;;;1.10;0.50;;;9.80;99.90;;;;;;5090428;28;20455;-61
2023/03/28 12:25:47;;;;;;;0.73;0.40;;;9.50;99.90;;;;;;5089796;28;20501;-62
2023/03/28 12:28:23;;;;;;;1.20;0.40;;;9.70;1.00;;;;;;5094437;28;20424;-62
2023/03/28 12:31:05;;;;;;;1.30;0.40;;;10.00;99.90;;;;;;5094371;28;20420;-61
2023/03/28 12:33:43;;;;;;;1.20;0.40;;;10.10;99.90;;;;;;5091702;28;20430;-61
2023/03/28 12:36:19;;;;;;;1.27;0.50;;;10.40;1.00;;;;;;5094456;28;20420;-61
2023/03/28 12:38:52;;;;;;;0.65;0.40;;;10.60;1.00;;;;;;5092610;28;20751;-61
2023/03/28 12:41:23;;;;;;;1.90;0.55;;;10.20;1.00;;;;;;5093407;28;20420;-61
2023/03/28 12:43:54;;;;;;;2.00;0.40;;;10.10;1.00;;;;;;5092327;28;20421;-61
2023/03/28 12:46:27;;;;;;;0.80;0.47;;;10.30;99.90;;;;;;5094816;28;20421;-62
2023/03/28 12:48:59;;;;;;;0.80;0.40;;;11.00;1.00;;;;;;5093010;28;20414;-62
2023/03/28 12:51:32;;;;;;;1.50;0.50;;;11.30;6.10;;;;;;5092569;28;20449;-61
2023/03/28 12:54:08;;;;;;;1.20;0.50;;;11.30;99.90;;;;;;5096628;28;20827;-61
2023/03/28 12:56:36;;;;;;;0.80;0.40;;;11.40;42.20;;;;;;5107402;28;20430;-61
2023/03/28 12:59:31;;;;;;;1.10;0.47;;;11.80;1.00;;;;;;5103859;28;20426;-62
2023/03/28 13:02:08;;;;;;;1.00;0.40;;;11.30;99.90;;;;;;5094151;28;20469;-63
2023/03/28 13:04:45;;;;;;;1.00;0.40;;;11.50;99.90;;;;;;5095166;28;20420;-61
2023/03/28 13:07:19;;;;;;;1.67;0.52;;;11.60;1.00;;;;;;5093004;28;20424;-61
2023/03/28 13:10:03;;;;;;;1.30;0.55;;;11.60;99.90;;;;;;5093165;28;20414;-61
2023/03/28 13:12:46;;;;;;;1.40;0.50;;;11.70;99.90;;;;;;5092865;28;20667;-61
2023/03/28 13:15:36;;;;;;;0.70;0.50;;;11.70;1.00;;;;;;5093810;28;20438;-61
2023/03/28 13:18:31;;;;;;;0.90;0.50;;;11.20;1.00;;;;;;5089466;28;20529;-61
2023/03/28 13:21:00;;;;;;;0.83;0.50;;;11.00;1.00;;;;;;5092841;28;20420;-61
2023/03/28 13:23:30;;;;;;;0.80;0.40;;;10.80;1.00;;;;;;5092593;28;20505;-62
2023/03/28 13:25:59;;;;;;;1.10;0.50;;;10.90;1.00;;;;;;5092528;28;20424;-61
2023/03/28 13:28:32;;;;;;;1.08;0.40;;;11.20;99.90;;;;;;5094484;28;20433;-61